sensor_id;sensor_type;location;lat;lon;timestamp;temperature;humidity
50556;DHT22;36508;52.512;13.450;2023-04-15T00:00:08;9.10;99.90
50556;DHT22;36508;52.512;13.450;2023-04-15T00:02:34;9.10;99.90
50556;DHT22;36508;52.512;13.450;2023-04-15T00:05:02;9.10;99.90
50556;DHT22;36508;52.512;13.450;2023-04-15T00:07:28;9.10;99.90
50556;DHT22;36508;52.512;13.450;2023-04-15T00:09:54;9.10;99.90
50556;DHT22;36508;52.512;13.450;2023-04-15T00:12:22;9.10;99.90
50556;DHT22;36508;52.512;13.450;2023-04-15T00:14:50;9.10;99.90
50556;DHT22;36508;52.512;13.450;2023-04-15T00:17:16;9.10;99.90
50556;DHT22;36508;52.512;13.450;2023-04-15T00:19:42;9.20;99.90
50556;DHT22;36508;52.512;13.450;2023-04-15T00:22:09;9.10;99.90
50556;DHT22;36508;52.512;13.450;2023-04-15T00:24:34;9.10;99.90
50556;DHT22;36508;52.512;13.450;2023-04-15T00:27:00;9.10;99.90
50556;DHT22;36508;52.512;13.450;2023-04-15T00:29:25;9.20;99.90
50556;DHT22;36508;52.512;13.450;2023-04-15T00:31:51;9.20;99.90
50556;DHT22;36508;52.512;13.450;2023-04-15T00:34:17;9.10;99.90
50556;DHT22;36508;52.512;13.450;2023-04-15T00:36:43;9.20;99.90
50556;DHT22;36508;52.512;13.450;2023-04-15T00:39:09;9.20;99.90
50556;DHT22;36508;52.512;13.450;2023-04-15T00:41:34;9.20;99.90
50556;DHT22;36508;52.512;13.450;2023-04-15T00:44:07;9.10;99.90
50556;DHT22;36508;52.512;13.450;2023-04-15T00:46:35;9.10;99.90
50556;DHT22;36508;52.512;13.450;2023-04-15T00:49:03;9.10;99.90
50556;DHT22;36508;52.512;13.450;2023-04-15T00:51:29;9.20;99.90
50556;DHT22;36508;52.512;13.450;2023-04-15T00:53:58;9.20;99.90
50556;DHT22;36508;52.512;13.450;2023-04-15T00:56:25;9.10;99.90
50556;DHT22;36508;52.512;13.450;2023-04-15T00:58:51;9.20;99.90
50556;DHT22;36508;52.512;13.450;2023-04-15T01:01:21;9.30;99.90
50556;DHT22;36508;52.512;13.450;2023-04-15T01:03:50;9.30;99.90
50556;DHT22;36508;52.512;13.450;2023-04-15T01:06:16;9.20;99.90
50556;DHT22;36508;52.512;13.450;2023-04-15T01:08:42;9.20;99.90
50556;DHT22;36508;52.512;13.450;2023-04-15T01:11:08;9.20;99.90
50556;DHT22;36508;52.512;13.450;2023-04-15T01:13:35;9.20;99.90
50556;DHT22;36508;52.512;13.450;2023-04-15T01:16:01;9.20;99.90
50556;DHT22;36508;52.512;13.450;2023-04-15T01:18:28;9.20;99.90
50556;DHT22;36508;52.512;13.450;2023-04-15T01:20:54;9.20;99.90
50556;DHT22;36508;52.512;13.450;2023-04-15T01:23:21;9.20;99.90
50556;DHT22;36508;52.512;13.450;2023-04-15T01:25:49;9.20;99.90
50556;DHT22;36508;52.512;13.450;2023-04-15T01:28:15;9.20;99.90
50556;DHT22;36508;52.512;13.450;2023-04-15T01:30:41;9.20;99.90
50556;DHT22;36508;52.512;13.450;2023-04-15T01:33:07;9.20;99.90
50556;DHT22;36508;52.512;13.450;2023-04-15T01:35:33;9.10;99.90
50556;DHT22;36508;52.512;13.450;2023-04-15T01:38:06;9.10;99.90
50556;DHT22;36508;52.512;13.450;2023-04-15T01:40:33;9.10;99.90
50556;DHT22;36508;52.512;13.450;2023-04-15T01:43:00;9.20;99.90
50556;DHT22;36508;52.512;13.450;2023-04-15T01:45:27;9.30;99.90
50556;DHT22;36508;52.512;13.450;2023-04-15T01:47:52;9.20;99.90
50556;DHT22;36508;52.512;13.450;2023-04-15T01:50:18;9.20;99.90
50556;DHT22;36508;52.512;13.450;2023-04-15T01:52:45;9.20;99.90
50556;DHT22;36508;52.512;13.450;2023-04-15T01:55:11;9.20;99.90
50556;DHT22;36508;52.512;13.450;2023-04-15T01:57:37;9.10;99.90
50556;DHT22;36508;52.512;13.450;2023-04-15T02:00:04;9.10;99.90
50556;DHT22;36508;52.512;13.450;2023-04-15T02:02:29;9.30;99.90
50556;DHT22;36508;52.512;13.450;2023-04-15T02:04:55;9.20;99.90
50556;DHT22;36508;52.512;13.450;2023-04-15T02:07:21;9.10;99.90
50556;DHT22;36508;52.512;13.450;2023-04-15T02:09:46;9.10;99.90
50556;DHT22;36508;52.512;13.450;2023-04-15T02:12:12;9.10;99.90
50556;DHT22;36508;52.512;13.450;2023-04-15T02:14:38;9.00;99.90
50556;DHT22;36508;52.512;13.450;2023-04-15T02:17:04;9.10;99.90
50556;DHT22;36508;52.512;13.450;2023-04-15T02:19:33;9.10;99.90
50556;DHT22;36508;52.512;13.450;2023-04-15T02:21:59;9.20;99.90
50556;DHT22;36508;52.512;13.450;2023-04-15T02:24:27;9.20;99.90
50556;DHT22;36508;52.512;13.450;2023-04-15T02:26:53;9.30;99.90
50556;DHT22;36508;52.512;13.450;2023-04-15T02:29:18;9.20;99.90
50556;DHT22;36508;52.512;13.450;2023-04-15T02:31:44;9.20;99.90
50556;DHT22;36508;52.512;13.450;2023-04-15T02:34:10;9.30;99.90
50556;DHT22;36508;52.512;13.450;2023-04-15T02:36:35;9.20;99.90
50556;DHT22;36508;52.512;13.450;2023-04-15T02:39:02;9.30;99.90
50556;DHT22;36508;52.512;13.450;2023-04-15T02:41:28;9.20;99.90
50556;DHT22;36508;52.512;13.450;2023-04-15T02:43:54;9.20;99.90
50556;DHT22;36508;52.512;13.450;2023-04-15T02:46:21;9.30;99.90
50556;DHT22;36508;52.512;13.450;2023-04-15T02:48:47;9.20;99.90
50556;DHT22;36508;52.512;13.450;2023-04-15T02:51:15;9.30;99.90
50556;DHT22;36508;52.512;13.450;2023-04-15T02:53:41;9.20;99.90
50556;DHT22;36508;52.512;13.450;2023-04-15T02:56:07;9.30;99.90
50556;DHT22;36508;52.512;13.450;2023-04-15T02:58:34;9.20;99.90
50556;DHT22;36508;52.512;13.450;2023-04-15T03:01:00;9.20;99.90
50556;DHT22;36508;52.512;13.450;2023-04-15T03:03:26;9.20;99.90
50556;DHT22;36508;52.512;13.450;2023-04-15T03:05:53;9.20;99.90
50556;DHT22;36508;52.512;13.450;2023-04-15T03:08:18;9.30;99.90
50556;DHT22;36508;52.512;13.450;2023-04-15T03:10:46;9.30;99.90
50556;DHT22;36508;52.512;13.450;2023-04-15T03:13:12;9.20;99.90
50556;DHT22;36508;52.512;13.450;2023-04-15T03:15:37;9.30;99.90
50556;DHT22;36508;52.512;13.450;2023-04-15T03:18:03;9.30;99.90
50556;DHT22;36508;52.512;13.450;2023-04-15T03:20:29;9.30;99.90
50556;DHT22;36508;52.512;13.450;2023-04-15T03:22:54;9.40;99.90
50556;DHT22;36508;52.512;13.450;2023-04-15T03:25:20;9.30;99.90
50556;DHT22;36508;52.512;13.450;2023-04-15T03:27:46;9.30;99.90
50556;DHT22;36508;52.512;13.450;2023-04-15T03:30:11;9.30;99.90
50556;DHT22;36508;52.512;13.450;2023-04-15T03:32:38;9.30;99.90
50556;DHT22;36508;52.512;13.450;2023-04-15T03:35:04;9.30;99.90
50556;DHT22;36508;52.512;13.450;2023-04-15T03:37:30;9.20;99.90
50556;DHT22;36508;52.512;13.450;2023-04-15T03:39:55;9.30;99.90
50556;DHT22;36508;52.512;13.450;2023-04-15T03:42:21;9.40;99.90
50556;DHT22;36508;52.512;13.450;2023-04-15T03:44:47;9.30;99.90
50556;DHT22;36508;52.512;13.450;2023-04-15T03:47:12;9.30;99.90
50556;DHT22;36508;52.512;13.450;2023-04-15T03:49:38;9.40;99.90
50556;DHT22;36508;52.512;13.450;2023-04-15T03:52:03;9.40;99.90
50556;DHT22;36508;52.512;13.450;2023-04-15T03:54:30;9.40;99.90
50556;DHT22;36508;52.512;13.450;2023-04-15T03:56:55;9.50;99.90
50556;DHT22;36508;52.512;13.450;2023-04-15T03:59:22;9.50;99.90
50556;DHT22;36508;52.512;13.450;2023-04-15T04:01:48;9.50;99.90
50556;DHT22;36508;52.512;13.450;2023-04-15T04:04:13;9.40;99.90
50556;DHT22;36508;52.512;13.450;2023-04-15T04:06:39;9.50;99.90
50556;DHT22;36508;52.512;13.450;2023-04-15T04:09:05;9.50;99.90
50556;DHT22;36508;52.512;13.450;2023-04-15T04:11:31;9.50;99.90
50556;DHT22;36508;52.512;13.450;2023-04-15T04:13:57;9.50;99.90
50556;DHT22;36508;52.512;13.450;2023-04-15T04:16:23;9.50;99.90
50556;DHT22;36508;52.512;13.450;2023-04-15T04:18:48;9.50;99.90
50556;DHT22;36508;52.512;13.450;2023-04-15T04:21:14;9.60;99.90
50556;DHT22;36508;52.512;13.450;2023-04-15T04:23:40;9.60;99.90
50556;DHT22;36508;52.512;13.450;2023-04-15T04:26:07;9.60;99.90
50556;DHT22;36508;52.512;13.450;2023-04-15T04:28:33;9.70;99.90
50556;DHT22;36508;52.512;13.450;2023-04-15T04:31:00;9.80;99.90
50556;DHT22;36508;52.512;13.450;2023-04-15T04:33:28;9.80;99.90
50556;DHT22;36508;52.512;13.450;2023-04-15T04:35:53;9.80;99.90
50556;DHT22;36508;52.512;13.450;2023-04-15T04:38:19;9.80;99.90
50556;DHT22;36508;52.512;13.450;2023-04-15T04:40:44;9.70;99.90
50556;DHT22;36508;52.512;13.450;2023-04-15T04:43:11;9.70;99.90
50556;DHT22;36508;52.512;13.450;2023-04-15T04:45:37;9.70;99.90
50556;DHT22;36508;52.512;13.450;2023-04-15T04:48:02;9.70;99.90
50556;DHT22;36508;52.512;13.450;2023-04-15T04:50:31;9.80;99.90
50556;DHT22;36508;52.512;13.450;2023-04-15T04:52:57;9.80;99.90
50556;DHT22;36508;52.512;13.450;2023-04-15T04:55:22;9.80;99.90
50556;DHT22;36508;52.512;13.450;2023-04-15T04:57:48;9.80;99.90
50556;DHT22;36508;52.512;13.450;2023-04-15T05:00:14;9.90;99.90
50556;DHT22;36508;52.512;13.450;2023-04-15T05:02:39;9.90;99.90
50556;DHT22;36508;52.512;13.450;2023-04-15T05:05:08;10.00;99.90
50556;DHT22;36508;52.512;13.450;2023-04-15T05:07:34;9.90;99.90
50556;DHT22;36508;52.512;13.450;2023-04-15T05:10:00;9.90;99.90
50556;DHT22;36508;52.512;13.450;2023-04-15T05:12:26;9.90;99.90
50556;DHT22;36508;52.512;13.450;2023-04-15T05:14:51;10.00;99.90
50556;DHT22;36508;52.512;13.450;2023-04-15T05:17:17;10.00;99.90
50556;DHT22;36508;52.512;13.450;2023-04-15T05:19:42;10.10;99.90
50556;DHT22;36508;52.512;13.450;2023-04-15T05:22:08;10.20;99.90
50556;DHT22;36508;52.512;13.450;2023-04-15T05:24:34;10.10;99.90
50556;DHT22;36508;52.512;13.450;2023-04-15T05:27:00;10.10;99.90
50556;DHT22;36508;52.512;13.450;2023-04-15T05:29:26;10.10;99.90
50556;DHT22;36508;52.512;13.450;2023-04-15T05:31:54;10.20;99.90
50556;DHT22;36508;52.512;13.450;2023-04-15T05:34:20;10.20;99.90
50556;DHT22;36508;52.512;13.450;2023-04-15T05:36:46;10.20;99.90
50556;DHT22;36508;52.512;13.450;2023-04-15T05:39:11;10.30;99.90
50556;DHT22;36508;52.512;13.450;2023-04-15T05:41:37;10.40;99.90
50556;DHT22;36508;52.512;13.450;2023-04-15T05:44:03;10.40;99.90
50556;DHT22;36508;52.512;13.450;2023-04-15T05:46:28;10.50;99.90
50556;DHT22;36508;52.512;13.450;2023-04-15T05:48:55;10.50;99.90
50556;DHT22;36508;52.512;13.450;2023-04-15T05:51:21;10.50;99.90
50556;DHT22;36508;52.512;13.450;2023-04-15T05:53:46;10.50;99.90
50556;DHT22;36508;52.512;13.450;2023-04-15T05:56:12;10.60;99.90
50556;DHT22;36508;52.512;13.450;2023-04-15T05:58:38;10.60;99.90
50556;DHT22;36508;52.512;13.450;2023-04-15T06:01:04;10.70;99.90
50556;DHT22;36508;52.512;13.450;2023-04-15T06:03:30;10.70;99.90
50556;DHT22;36508;52.512;13.450;2023-04-15T06:05:55;10.70;99.90
50556;DHT22;36508;52.512;13.450;2023-04-15T06:08:21;10.70;99.90
50556;DHT22;36508;52.512;13.450;2023-04-15T06:10:47;10.90;99.90
50556;DHT22;36508;52.512;13.450;2023-04-15T06:13:13;11.00;99.90
50556;DHT22;36508;52.512;13.450;2023-04-15T06:15:38;11.00;99.90
50556;DHT22;36508;52.512;13.450;2023-04-15T06:18:04;10.90;99.90
50556;DHT22;36508;52.512;13.450;2023-04-15T06:20:30;11.00;99.90
50556;DHT22;36508;52.512;13.450;2023-04-15T06:22:56;11.10;99.90
50556;DHT22;36508;52.512;13.450;2023-04-15T06:25:22;11.00;99.90
50556;DHT22;36508;52.512;13.450;2023-04-15T06:27:48;10.90;99.90
50556;DHT22;36508;52.512;13.450;2023-04-15T06:30:14;11.00;99.90
50556;DHT22;36508;52.512;13.450;2023-04-15T06:32:39;11.00;99.90
50556;DHT22;36508;52.512;13.450;2023-04-15T06:35:05;11.10;99.90
50556;DHT22;36508;52.512;13.450;2023-04-15T06:37:31;11.20;99.90
50556;DHT22;36508;52.512;13.450;2023-04-15T06:39:57;11.30;99.90
50556;DHT22;36508;52.512;13.450;2023-04-15T06:42:22;11.40;99.90
50556;DHT22;36508;52.512;13.450;2023-04-15T06:44:49;11.40;99.90
50556;DHT22;36508;52.512;13.450;2023-04-15T06:47:15;11.50;99.90
50556;DHT22;36508;52.512;13.450;2023-04-15T06:49:40;11.40;99.90
50556;DHT22;36508;52.512;13.450;2023-04-15T06:52:07;11.60;99.90
50556;DHT22;36508;52.512;13.450;2023-04-15T06:54:33;11.60;99.90
50556;DHT22;36508;52.512;13.450;2023-04-15T06:56:59;11.70;99.90
50556;DHT22;36508;52.512;13.450;2023-04-15T06:59:25;11.80;99.90
50556;DHT22;36508;52.512;13.450;2023-04-15T07:01:53;11.80;99.90
50556;DHT22;36508;52.512;13.450;2023-04-15T07:04:18;11.70;99.90
50556;DHT22;36508;52.512;13.450;2023-04-15T07:06:47;11.90;99.90
50556;DHT22;36508;52.512;13.450;2023-04-15T07:09:13;12.00;99.90
50556;DHT22;36508;52.512;13.450;2023-04-15T07:11:38;11.90;99.90
50556;DHT22;36508;52.512;13.450;2023-04-15T07:14:04;11.80;99.90
50556;DHT22;36508;52.512;13.450;2023-04-15T07:16:30;11.70;99.90
50556;DHT22;36508;52.512;13.450;2023-04-15T07:18:55;11.70;99.90
50556;DHT22;36508;52.512;13.450;2023-04-15T07:21:21;11.70;99.90
50556;DHT22;36508;52.512;13.450;2023-04-15T07:23:47;11.70;99.90
50556;DHT22;36508;52.512;13.450;2023-04-15T07:26:12;11.70;99.90
50556;DHT22;36508;52.512;13.450;2023-04-15T07:28:38;11.70;99.90
50556;DHT22;36508;52.512;13.450;2023-04-15T07:31:06;11.70;99.90
50556;DHT22;36508;52.512;13.450;2023-04-15T07:33:32;11.60;99.90
50556;DHT22;36508;52.512;13.450;2023-04-15T07:36:03;11.60;99.90
50556;DHT22;36508;52.512;13.450;2023-04-15T07:38:28;11.60;99.90
50556;DHT22;36508;52.512;13.450;2023-04-15T07:40:57;11.70;99.90
50556;DHT22;36508;52.512;13.450;2023-04-15T07:43:22;11.70;99.90
50556;DHT22;36508;52.512;13.450;2023-04-15T07:45:48;11.70;99.90
50556;DHT22;36508;52.512;13.450;2023-04-15T07:48:13;11.60;99.90
50556;DHT22;36508;52.512;13.450;2023-04-15T07:50:39;11.60;99.90
50556;DHT22;36508;52.512;13.450;2023-04-15T07:53:05;11.60;99.90
50556;DHT22;36508;52.512;13.450;2023-04-15T07:55:31;11.50;99.90
50556;DHT22;36508;52.512;13.450;2023-04-15T07:57:57;11.40;99.90
50556;DHT22;36508;52.512;13.450;2023-04-15T08:00:26;11.40;99.90
50556;DHT22;36508;52.512;13.450;2023-04-15T08:02:52;11.40;99.90
50556;DHT22;36508;52.512;13.450;2023-04-15T08:05:18;11.40;99.90
50556;DHT22;36508;52.512;13.450;2023-04-15T08:07:47;11.40;99.90
50556;DHT22;36508;52.512;13.450;2023-04-15T08:10:29;11.40;99.90
50556;DHT22;36508;52.512;13.450;2023-04-15T08:12:56;11.40;99.90
50556;DHT22;36508;52.512;13.450;2023-04-15T08:15:21;11.40;99.90
50556;DHT22;36508;52.512;13.450;2023-04-15T08:17:47;11.50;99.90
50556;DHT22;36508;52.512;13.450;2023-04-15T08:20:13;11.40;99.90
50556;DHT22;36508;52.512;13.450;2023-04-15T08:22:39;11.40;99.90
50556;DHT22;36508;52.512;13.450;2023-04-15T08:25:05;11.40;99.90
50556;DHT22;36508;52.512;13.450;2023-04-15T08:27:31;11.40;99.90
50556;DHT22;36508;52.512;13.450;2023-04-15T08:29:56;11.40;99.90
50556;DHT22;36508;52.512;13.450;2023-04-15T08:32:22;11.40;99.90
50556;DHT22;36508;52.512;13.450;2023-04-15T08:34:50;11.40;99.90
50556;DHT22;36508;52.512;13.450;2023-04-15T08:37:16;11.40;99.90
50556;DHT22;36508;52.512;13.450;2023-04-15T08:39:41;11.50;99.90
50556;DHT22;36508;52.512;13.450;2023-04-15T08:42:16;11.40;99.90
50556;DHT22;36508;52.512;13.450;2023-04-15T08:44:42;11.50;99.90
50556;DHT22;36508;52.512;13.450;2023-04-15T08:47:12;11.50;99.90
50556;DHT22;36508;52.512;13.450;2023-04-15T08:49:39;11.60;99.90
50556;DHT22;36508;52.512;13.450;2023-04-15T08:52:06;11.60;99.90
50556;DHT22;36508;52.512;13.450;2023-04-15T08:54:37;11.60;99.90
50556;DHT22;36508;52.512;13.450;2023-04-15T08:57:03;11.70;99.90
50556;DHT22;36508;52.512;13.450;2023-04-15T08:59:31;11.70;99.90
50556;DHT22;36508;52.512;13.450;2023-04-15T09:01:57;11.80;99.90
50556;DHT22;36508;52.512;13.450;2023-04-15T09:04:23;11.90;99.90
50556;DHT22;36508;52.512;13.450;2023-04-15T09:06:49;12.00;99.90
50556;DHT22;36508;52.512;13.450;2023-04-15T09:09:14;12.10;99.90
50556;DHT22;36508;52.512;13.450;2023-04-15T09:11:41;12.10;99.90
50556;DHT22;36508;52.512;13.450;2023-04-15T09:14:06;12.10;99.90
50556;DHT22;36508;52.512;13.450;2023-04-15T09:17:10;12.20;99.90
50556;DHT22;36508;52.512;13.450;2023-04-15T09:19:36;12.30;99.90
50556;DHT22;36508;52.512;13.450;2023-04-15T09:22:02;12.30;99.90
50556;DHT22;36508;52.512;13.450;2023-04-15T09:24:38;12.30;99.90
50556;DHT22;36508;52.512;13.450;2023-04-15T09:27:05;12.30;99.90
50556;DHT22;36508;52.512;13.450;2023-04-15T09:29:32;12.30;99.90
50556;DHT22;36508;52.512;13.450;2023-04-15T09:32:16;12.30;99.90
50556;DHT22;36508;52.512;13.450;2023-04-15T09:34:42;12.40;99.90
50556;DHT22;36508;52.512;13.450;2023-04-15T09:37:08;12.50;99.90
50556;DHT22;36508;52.512;13.450;2023-04-15T09:39:49;12.30;99.90
50556;DHT22;36508;52.512;13.450;2023-04-15T09:42:15;12.30;99.90
50556;DHT22;36508;52.512;13.450;2023-04-15T09:44:42;12.20;99.90
50556;DHT22;36508;52.512;13.450;2023-04-15T09:47:08;12.20;99.90
50556;DHT22;36508;52.512;13.450;2023-04-15T09:49:34;12.10;99.90
50556;DHT22;36508;52.512;13.450;2023-04-15T09:52:00;12.10;99.90
50556;DHT22;36508;52.512;13.450;2023-04-15T09:54:34;12.10;99.90
50556;DHT22;36508;52.512;13.450;2023-04-15T09:57:04;12.00;99.90
50556;DHT22;36508;52.512;13.450;2023-04-15T09:59:31;11.90;99.90
50556;DHT22;36508;52.512;13.450;2023-04-15T10:01:56;11.90;99.90
50556;DHT22;36508;52.512;13.450;2023-04-15T10:04:22;11.90;99.90
50556;DHT22;36508;52.512;13.450;2023-04-15T10:06:49;11.70;99.90
50556;DHT22;36508;52.512;13.450;2023-04-15T10:09:15;11.70;99.90
50556;DHT22;36508;52.512;13.450;2023-04-15T10:11:42;11.70;99.90
50556;DHT22;36508;52.512;13.450;2023-04-15T10:14:09;11.70;99.90
50556;DHT22;36508;52.512;13.450;2023-04-15T10:16:38;11.70;99.90
50556;DHT22;36508;52.512;13.450;2023-04-15T10:19:07;11.70;99.90
50556;DHT22;36508;52.512;13.450;2023-04-15T10:21:36;11.90;99.90
50556;DHT22;36508;52.512;13.450;2023-04-15T10:24:02;11.90;99.90
50556;DHT22;36508;52.512;13.450;2023-04-15T10:26:29;11.90;99.90
50556;DHT22;36508;52.512;13.450;2023-04-15T10:28:55;11.90;99.90
50556;DHT22;36508;52.512;13.450;2023-04-15T10:31:21;11.90;99.90
50556;DHT22;36508;52.512;13.450;2023-04-15T10:33:48;11.90;99.90
50556;DHT22;36508;52.512;13.450;2023-04-15T10:36:15;11.90;99.90
50556;DHT22;36508;52.512;13.450;2023-04-15T10:38:43;11.90;99.90
50556;DHT22;36508;52.512;13.450;2023-04-15T10:43:37;12.10;99.90
50556;DHT22;36508;52.512;13.450;2023-04-15T10:46:05;12.30;99.90
50556;DHT22;36508;52.512;13.450;2023-04-15T10:48:31;12.40;99.90
50556;DHT22;36508;52.512;13.450;2023-04-15T10:50:59;12.40;99.90
50556;DHT22;36508;52.512;13.450;2023-04-15T10:53:29;12.60;99.90
50556;DHT22;36508;52.512;13.450;2023-04-15T10:55:56;12.60;99.90
50556;DHT22;36508;52.512;13.450;2023-04-15T10:58:23;12.20;99.90
50556;DHT22;36508;52.512;13.450;2023-04-15T11:00:52;12.30;99.90
50556;DHT22;36508;52.512;13.450;2023-04-15T11:03:36;12.40;99.90
50556;DHT22;36508;52.512;13.450;2023-04-15T11:06:03;12.40;99.90
50556;DHT22;36508;52.512;13.450;2023-04-15T11:08:56;12.30;99.90
50556;DHT22;36508;52.512;13.450;2023-04-15T11:14:14;12.30;99.90
50556;DHT22;36508;52.512;13.450;2023-04-15T11:16:44;12.30;99.90
50556;DHT22;36508;52.512;13.450;2023-04-15T11:19:10;12.30;99.90
50556;DHT22;36508;52.512;13.450;2023-04-15T11:21:35;12.30;99.90
50556;DHT22;36508;52.512;13.450;2023-04-15T11:24:01;12.30;99.90
50556;DHT22;36508;52.512;13.450;2023-04-15T11:26:28;12.20;99.90
50556;DHT22;36508;52.512;13.450;2023-04-15T11:28:54;12.20;99.90
50556;DHT22;36508;52.512;13.450;2023-04-15T11:31:19;12.20;99.90
50556;DHT22;36508;52.512;13.450;2023-04-15T11:33:57;12.10;99.90
50556;DHT22;36508;52.512;13.450;2023-04-15T11:36:25;12.20;99.90
50556;DHT22;36508;52.512;13.450;2023-04-15T11:38:51;12.30;99.90
50556;DHT22;36508;52.512;13.450;2023-04-15T11:41:21;12.30;99.90
50556;DHT22;36508;52.512;13.450;2023-04-15T11:43:47;12.20;99.90
50556;DHT22;36508;52.512;13.450;2023-04-15T11:46:13;12.30;99.90
50556;DHT22;36508;52.512;13.450;2023-04-15T11:48:42;12.30;99.90
50556;DHT22;36508;52.512;13.450;2023-04-15T11:51:09;12.40;99.90
50556;DHT22;36508;52.512;13.450;2023-04-15T11:53:46;12.30;99.90
50556;DHT22;36508;52.512;13.450;2023-04-15T11:56:20;12.10;99.90
50556;DHT22;36508;52.512;13.450;2023-04-15T11:58:55;12.20;99.90
50556;DHT22;36508;52.512;13.450;2023-04-15T12:01:54;12.10;99.90
50556;DHT22;36508;52.512;13.450;2023-04-15T12:04:20;12.00;99.90
50556;DHT22;36508;52.512;13.450;2023-04-15T12:06:48;12.10;99.90
50556;DHT22;36508;52.512;13.450;2023-04-15T12:09:15;12.10;99.90
50556;DHT22;36508;52.512;13.450;2023-04-15T12:11:46;12.20;99.90
50556;DHT22;36508;52.512;13.450;2023-04-15T12:19:28;12.30;99.90
50556;DHT22;36508;52.512;13.450;2023-04-15T12:22:05;12.40;99.90
50556;DHT22;36508;52.512;13.450;2023-04-15T12:24:35;12.40;99.90
50556;DHT22;36508;52.512;13.450;2023-04-15T12:27:15;12.50;99.90
50556;DHT22;36508;52.512;13.450;2023-04-15T12:29:42;12.60;99.90
50556;DHT22;36508;52.512;13.450;2023-04-15T12:32:10;12.60;99.90
50556;DHT22;36508;52.512;13.450;2023-04-15T12:34:38;12.70;99.90
50556;DHT22;36508;52.512;13.450;2023-04-15T12:37:06;12.80;99.90
50556;DHT22;36508;52.512;13.450;2023-04-15T12:39:35;12.90;99.90
50556;DHT22;36508;52.512;13.450;2023-04-15T12:42:01;12.80;99.90
50556;DHT22;36508;52.512;13.450;2023-04-15T12:44:28;12.70;99.90
50556;DHT22;36508;52.512;13.450;2023-04-15T12:46:53;12.80;99.90
50556;DHT22;36508;52.512;13.450;2023-04-15T12:49:24;12.70;99.90
50556;DHT22;36508;52.512;13.450;2023-04-15T12:51:55;12.60;99.90
50556;DHT22;36508;52.512;13.450;2023-04-15T12:54:21;12.70;99.90
50556;DHT22;36508;52.512;13.450;2023-04-15T12:56:48;12.90;99.90
50556;DHT22;36508;52.512;13.450;2023-04-15T12:59:14;12.90;99.90
50556;DHT22;36508;52.512;13.450;2023-04-15T13:01:41;12.90;99.90
50556;DHT22;36508;52.512;13.450;2023-04-15T13:04:06;12.80;99.90
50556;DHT22;36508;52.512;13.450;2023-04-15T13:06:32;12.90;99.90
50556;DHT22;36508;52.512;13.450;2023-04-15T13:08:59;12.80;99.90
50556;DHT22;36508;52.512;13.450;2023-04-15T13:11:27;12.90;99.90
50556;DHT22;36508;52.512;13.450;2023-04-15T13:13:55;12.90;99.90
50556;DHT22;36508;52.512;13.450;2023-04-15T13:16:27;12.80;99.90
50556;DHT22;36508;52.512;13.450;2023-04-15T13:18:57;12.70;99.90
50556;DHT22;36508;52.512;13.450;2023-04-15T13:21:23;12.70;99.90
50556;DHT22;36508;52.512;13.450;2023-04-15T13:23:49;12.60;99.90
50556;DHT22;36508;52.512;13.450;2023-04-15T13:26:16;12.70;99.90
50556;DHT22;36508;52.512;13.450;2023-04-15T13:28:42;12.50;99.90
50556;DHT22;36508;52.512;13.450;2023-04-15T13:31:08;12.50;99.90
50556;DHT22;36508;52.512;13.450;2023-04-15T13:33:33;12.70;99.90
50556;DHT22;36508;52.512;13.450;2023-04-15T13:35:59;12.80;99.90
50556;DHT22;36508;52.512;13.450;2023-04-15T13:38:25;12.90;99.90
50556;DHT22;36508;52.512;13.450;2023-04-15T13:40:51;12.90;99.90
50556;DHT22;36508;52.512;13.450;2023-04-15T13:43:16;12.90;99.90
50556;DHT22;36508;52.512;13.450;2023-04-15T13:45:43;13.10;99.90
50556;DHT22;36508;52.512;13.450;2023-04-15T13:48:08;13.00;99.90
50556;DHT22;36508;52.512;13.450;2023-04-15T13:50:34;12.90;99.90
50556;DHT22;36508;52.512;13.450;2023-04-15T13:53:00;12.80;99.90
50556;DHT22;36508;52.512;13.450;2023-04-15T13:55:26;12.60;99.90
50556;DHT22;36508;52.512;13.450;2023-04-15T13:57:52;12.60;99.90
50556;DHT22;36508;52.512;13.450;2023-04-15T14:00:17;12.60;99.90
50556;DHT22;36508;52.512;13.450;2023-04-15T14:02:43;12.50;99.90
50556;DHT22;36508;52.512;13.450;2023-04-15T14:05:09;12.50;99.90
50556;DHT22;36508;52.512;13.450;2023-04-15T14:07:35;12.40;99.90
50556;DHT22;36508;52.512;13.450;2023-04-15T14:10:01;12.40;99.90
50556;DHT22;36508;52.512;13.450;2023-04-15T14:12:27;12.30;99.90
50556;DHT22;36508;52.512;13.450;2023-04-15T14:14:53;12.20;99.90
50556;DHT22;36508;52.512;13.450;2023-04-15T14:17:18;12.30;99.90
50556;DHT22;36508;52.512;13.450;2023-04-15T14:19:44;12.40;99.90
50556;DHT22;36508;52.512;13.450;2023-04-15T14:22:10;12.50;99.90
50556;DHT22;36508;52.512;13.450;2023-04-15T14:24:36;12.40;99.90
50556;DHT22;36508;52.512;13.450;2023-04-15T14:27:02;12.40;99.90
50556;DHT22;36508;52.512;13.450;2023-04-15T14:29:28;12.50;99.90
50556;DHT22;36508;52.512;13.450;2023-04-15T14:31:53;12.50;99.90
50556;DHT22;36508;52.512;13.450;2023-04-15T14:34:23;12.50;99.90
50556;DHT22;36508;52.512;13.450;2023-04-15T14:36:50;12.50;99.90
50556;DHT22;36508;52.512;13.450;2023-04-15T14:39:18;12.50;99.90
50556;DHT22;36508;52.512;13.450;2023-04-15T14:41:44;12.50;99.90
50556;DHT22;36508;52.512;13.450;2023-04-15T14:44:09;12.50;99.90
50556;DHT22;36508;52.512;13.450;2023-04-15T14:46:36;12.60;99.90
50556;DHT22;36508;52.512;13.450;2023-04-15T14:49:02;12.50;99.90
50556;DHT22;36508;52.512;13.450;2023-04-15T14:51:27;12.50;99.90
50556;DHT22;36508;52.512;13.450;2023-04-15T14:53:53;12.50;99.90
50556;DHT22;36508;52.512;13.450;2023-04-15T14:56:19;12.50;99.90
50556;DHT22;36508;52.512;13.450;2023-04-15T14:58:44;12.50;99.90
50556;DHT22;36508;52.512;13.450;2023-04-15T15:01:10;12.40;99.90
50556;DHT22;36508;52.512;13.450;2023-04-15T15:03:36;12.40;99.90
50556;DHT22;36508;52.512;13.450;2023-04-15T15:06:01;12.40;99.90
50556;DHT22;36508;52.512;13.450;2023-04-15T15:08:27;12.40;99.90
50556;DHT22;36508;52.512;13.450;2023-04-15T15:10:54;12.30;99.90
50556;DHT22;36508;52.512;13.450;2023-04-15T15:13:19;12.40;99.90
50556;DHT22;36508;52.512;13.450;2023-04-15T15:15:46;12.30;99.90
50556;DHT22;36508;52.512;13.450;2023-04-15T15:18:14;12.30;99.90
50556;DHT22;36508;52.512;13.450;2023-04-15T15:20:40;12.30;99.90
50556;DHT22;36508;52.512;13.450;2023-04-15T15:23:06;12.30;99.90
50556;DHT22;36508;52.512;13.450;2023-04-15T15:25:31;12.10;99.90
50556;DHT22;36508;52.512;13.450;2023-04-15T15:27:57;12.20;99.90